createdAt,value
2023-11-23T00:00:36.517Z,7.40
2023-11-23T00:02:38.539Z,6.85
2023-11-23T00:04:40.070Z,6.05
2023-11-23T00:06:41.506Z,7.85
2023-11-23T00:08:43.168Z,5.63
2023-11-23T00:10:44.622Z,4.93
2023-11-23T00:12:46.338Z,4.57
2023-11-23T00:14:47.807Z,4.80
2023-11-23T00:16:49.358Z,5.45
2023-11-23T00:18:51.223Z,5.13
2023-11-23T00:20:52.781Z,6.03
2023-11-23T00:22:56.405Z,4.72
2023-11-23T00:24:59.863Z,6.07
2023-11-23T00:27:01.433Z,13.80
2023-11-23T00:29:02.910Z,16.58
2023-11-23T00:31:04.691Z,8.88
2023-11-23T00:33:06.149Z,7.80
2023-11-23T00:35:08.261Z,6.93
2023-11-23T00:37:09.862Z,5.75
2023-11-23T00:39:11.338Z,10.32
2023-11-23T00:41:12.768Z,7.60
2023-11-23T00:43:14.562Z,6.68
2023-11-23T00:45:16.161Z,5.18
2023-11-23T00:47:17.735Z,6.35
2023-11-23T00:49:19.521Z,4.78
2023-11-23T00:51:20.949Z,4.00
2023-11-23T00:53:22.797Z,5.57
2023-11-23T00:55:24.725Z,5.68
2023-11-23T00:57:26.164Z,7.35
2023-11-23T00:59:27.678Z,6.45
2023-11-23T01:01:29.593Z,4.45
2023-11-23T01:03:31.196Z,7.43
2023-11-23T01:05:32.845Z,4.25
2023-11-23T01:07:34.338Z,5.88
2023-11-23T01:09:35.776Z,5.13
2023-11-23T01:11:37.304Z,5.03
2023-11-23T01:13:39.500Z,5.75
2023-11-23T01:15:41.021Z,6.80
2023-11-23T01:17:43.317Z,4.68
2023-11-23T01:19:44.780Z,5.55
2023-11-23T01:21:46.279Z,5.45
2023-11-23T01:23:47.806Z,6.18
2023-11-23T01:25:49.238Z,4.97
2023-11-23T01:27:50.677Z,6.13
2023-11-23T01:29:52.412Z,4.72
2023-11-23T01:31:53.910Z,5.45
2023-11-23T01:33:55.452Z,6.15
2023-11-23T01:35:57.255Z,6.13
2023-11-23T01:37:58.702Z,6.60
2023-11-23T01:40:00.362Z,6.70
2023-11-23T01:42:02.344Z,5.22
2023-11-23T01:44:04.017Z,7.05
2023-11-23T01:46:06.225Z,5.70
2023-11-23T01:48:07.850Z,5.38
2023-11-23T01:50:12.081Z,5.60
2023-11-23T01:52:15.537Z,5.10
2023-11-23T01:54:17.509Z,5.63
2023-11-23T01:56:20.756Z,6.70
2023-11-23T01:58:22.337Z,5.78
2023-11-23T02:00:24.408Z,6.38
2023-11-23T02:02:30.420Z,5.20
2023-11-23T02:04:32.198Z,5.43
2023-11-23T02:06:33.652Z,6.07
2023-11-23T02:08:36.037Z,6.60
2023-11-23T02:10:38.280Z,6.47
2023-11-23T02:12:39.773Z,6.43
2023-11-23T02:14:41.492Z,5.00
2023-11-23T02:16:43.115Z,6.00
2023-11-23T02:18:44.578Z,6.88
2023-11-23T02:20:46.232Z,5.65
2023-11-23T02:22:47.902Z,6.47
2023-11-23T02:24:49.419Z,6.65
2023-11-23T02:26:51.009Z,7.88
2023-11-23T02:28:52.546Z,14.63
2023-11-23T02:30:54.040Z,15.73
2023-11-23T02:32:56.011Z,9.43
2023-11-23T02:34:57.467Z,9.27
2023-11-23T02:36:58.900Z,9.30
2023-11-23T02:39:00.811Z,6.20
2023-11-23T02:41:02.295Z,5.18
2023-11-23T02:43:07.181Z,5.38
2023-11-23T02:45:09.335Z,7.07
2023-11-23T02:47:10.774Z,7.03
2023-11-23T02:49:12.255Z,7.30
2023-11-23T02:51:13.948Z,6.22
2023-11-23T02:53:15.399Z,7.38
2023-11-23T02:55:16.867Z,5.82
2023-11-23T02:57:18.958Z,6.25
2023-11-23T02:59:20.470Z,5.20
2023-11-23T03:01:22.001Z,6.95
2023-11-23T03:03:23.703Z,7.55
2023-11-23T03:05:25.179Z,7.18
2023-11-23T03:07:26.607Z,4.22
2023-11-23T03:09:28.570Z,4.97
2023-11-23T03:11:30.087Z,5.10
2023-11-23T03:13:31.621Z,6.32
2023-11-23T03:15:33.234Z,8.18
2023-11-23T03:17:34.721Z,5.55
2023-11-23T03:19:36.423Z,6.57
2023-11-23T03:21:38.164Z,6.05
2023-11-23T03:23:42.371Z,6.38
2023-11-23T03:25:43.868Z,7.13
2023-11-23T03:27:45.460Z,6.10
2023-11-23T03:29:46.913Z,6.18
2023-11-23T03:31:48.357Z,5.57
2023-11-23T03:33:50.153Z,6.50
2023-11-23T03:35:51.644Z,6.63
2023-11-23T03:37:53.098Z,6.85
2023-11-23T03:39:58.537Z,6.53
2023-11-23T03:41:59.973Z,7.13
2023-11-23T03:44:01.484Z,6.43
2023-11-23T03:46:03.282Z,7.15
2023-11-23T03:48:05.151Z,6.60
2023-11-23T03:50:07.147Z,5.05
2023-11-23T03:52:08.896Z,4.95
2023-11-23T03:54:10.424Z,6.13
2023-11-23T03:56:15.131Z,5.82
2023-11-23T03:58:16.740Z,5.57
2023-11-23T04:00:18.447Z,5.43
2023-11-23T04:02:20.014Z,5.47
2023-11-23T04:04:22.056Z,5.80
2023-11-23T04:06:23.555Z,5.50
2023-11-23T04:08:25.033Z,5.68
2023-11-23T04:10:26.650Z,5.60
2023-11-23T04:12:28.090Z,8.07
2023-11-23T04:14:29.562Z,7.10
2023-11-23T04:16:31.265Z,5.53
2023-11-23T04:18:32.751Z,7.15
2023-11-23T04:20:34.333Z,5.63
2023-11-23T04:22:35.779Z,5.40
2023-11-23T04:24:39.654Z,5.07
2023-11-23T04:26:44.230Z,5.43
2023-11-23T04:28:45.709Z,6.50
2023-11-23T04:30:47.136Z,7.57
2023-11-23T04:32:48.803Z,6.35
2023-11-23T04:34:50.381Z,4.68
2023-11-23T04:36:51.811Z,4.97
2023-11-23T04:38:53.396Z,6.57
2023-11-23T04:40:54.905Z,6.18
2023-11-23T04:42:56.338Z,6.20
2023-11-23T04:44:58.253Z,4.68
2023-11-23T04:46:59.850Z,6.13
2023-11-23T04:49:01.288Z,6.03
2023-11-23T04:51:02.909Z,3.85
2023-11-23T04:53:04.867Z,4.32
2023-11-23T04:55:06.727Z,6.03
2023-11-23T04:57:08.401Z,4.75
2023-11-23T04:59:10.149Z,6.03
2023-11-23T05:01:11.636Z,5.20
2023-11-23T05:03:13.280Z,6.00
2023-11-23T05:05:14.912Z,4.97
2023-11-23T05:07:16.420Z,5.68
2023-11-23T05:09:18.251Z,6.70
2023-11-23T05:11:19.811Z,5.47
2023-11-23T05:13:21.242Z,6.78
2023-11-23T05:15:22.845Z,4.55
2023-11-23T05:17:24.368Z,6.47
2023-11-23T05:19:35.938Z,6.63
2023-11-23T05:21:43.756Z,4.80
2023-11-23T05:23:45.585Z,6.65
2023-11-23T05:25:47.031Z,4.85
2023-11-23T05:27:48.575Z,6.88
2023-11-23T05:29:51.784Z,3.88
2023-11-23T05:31:53.726Z,4.88
2023-11-23T05:33:55.364Z,5.65
2023-11-23T05:35:56.994Z,4.93
2023-11-23T05:37:58.880Z,4.60
2023-11-23T05:40:00.584Z,5.18
2023-11-23T05:42:02.514Z,6.13
2023-11-23T05:44:04.095Z,5.22
2023-11-23T05:46:05.825Z,5.25
2023-11-23T05:48:07.587Z,4.95
2023-11-23T05:50:09.594Z,5.80
2023-11-23T05:52:11.589Z,3.85
2023-11-23T05:54:13.162Z,6.18
2023-11-23T05:56:14.605Z,5.25
2023-11-23T05:58:16.290Z,6.90
2023-11-23T06:00:18.313Z,3.90
2023-11-23T06:02:20.338Z,4.85
2023-11-23T06:04:22.475Z,5.28
2023-11-23T06:06:24.754Z,6.15
2023-11-23T06:08:28.103Z,6.65
2023-11-23T06:10:29.697Z,5.50
2023-11-23T06:12:31.476Z,5.35
2023-11-23T06:14:33.368Z,5.80
2023-11-23T06:16:35.248Z,5.38
2023-11-23T06:18:37.033Z,4.93
2023-11-23T06:20:38.513Z,3.75
2023-11-23T06:22:40.144Z,5.55
2023-11-23T06:24:42.016Z,4.43
2023-11-23T06:26:43.684Z,4.65
2023-11-23T06:28:45.338Z,5.63
2023-11-23T06:30:47.948Z,5.70
2023-11-23T06:32:49.457Z,5.82
2023-11-23T06:34:51.285Z,3.00
2023-11-23T06:36:53.199Z,5.30
2023-11-23T06:38:54.651Z,4.90
2023-11-23T06:40:56.218Z,4.85
2023-11-23T06:42:57.919Z,5.15
2023-11-23T06:44:59.562Z,6.55
2023-11-23T06:47:01.260Z,5.65
2023-11-23T06:49:05.013Z,6.07
2023-11-23T06:51:08.643Z,3.85
2023-11-23T06:53:10.459Z,3.50
2023-11-23T06:55:12.091Z,4.70
2023-11-23T06:57:13.641Z,6.07
2023-11-23T06:59:15.259Z,3.92
2023-11-23T07:01:17.275Z,4.65
2023-11-23T07:03:18.927Z,5.15
2023-11-23T07:05:20.765Z,4.25
2023-11-23T07:07:22.199Z,4.10
2023-11-23T07:09:23.805Z,4.72
2023-11-23T07:11:25.564Z,3.15
2023-11-23T07:13:27.815Z,4.65
2023-11-23T07:15:29.390Z,4.38
2023-11-23T07:17:31.012Z,4.47
2023-11-23T07:19:32.785Z,3.78
2023-11-23T07:21:34.251Z,4.40
2023-11-23T07:23:35.962Z,3.38
2023-11-23T07:25:37.725Z,3.22
2023-11-23T07:27:39.326Z,3.90
2023-11-23T07:29:41.253Z,3.63
2023-11-23T07:31:45.000Z,4.07
2023-11-23T07:33:46.634Z,3.33
2023-11-23T07:35:49.393Z,3.75
2023-11-23T07:37:51.121Z,3.28
2023-11-23T07:39:52.608Z,3.95
2023-11-23T07:41:54.270Z,3.65
2023-11-23T07:43:55.868Z,3.03
2023-11-23T07:45:57.300Z,3.03
2023-11-23T07:47:59.035Z,3.03
2023-11-23T07:50:00.638Z,2.38
2023-11-23T07:52:02.114Z,3.63
2023-11-23T07:54:04.013Z,3.55
2023-11-23T07:56:05.980Z,3.45
2023-11-23T07:58:07.494Z,2.92
2023-11-23T08:00:09.801Z,3.22
2023-11-23T08:02:11.697Z,3.63
2023-11-23T08:04:13.415Z,3.38
2023-11-23T08:06:15.117Z,3.17
2023-11-23T08:08:17.123Z,4.25
2023-11-23T08:10:18.676Z,3.88
2023-11-23T08:12:20.360Z,4.43
2023-11-23T08:14:21.875Z,3.47
2023-11-23T08:16:23.334Z,3.10
2023-11-23T08:18:32.863Z,4.72
2023-11-23T08:20:43.015Z,4.07
2023-11-23T08:22:44.475Z,6.45
2023-11-23T08:24:46.393Z,5.03
2023-11-23T08:26:47.967Z,4.28
2023-11-23T08:28:49.398Z,3.72
2023-11-23T08:30:51.225Z,4.80
2023-11-23T08:32:53.005Z,4.55
2023-11-23T08:34:54.507Z,4.43
2023-11-23T08:36:56.055Z,4.20
2023-11-23T08:38:57.600Z,2.88
2023-11-23T08:40:59.148Z,4.10
2023-11-23T08:43:00.795Z,4.35
2023-11-23T08:45:02.686Z,4.68
2023-11-23T08:47:04.683Z,5.15
2023-11-23T08:49:06.516Z,4.15
2023-11-23T08:51:08.261Z,4.55
2023-11-23T08:53:09.709Z,3.50
2023-11-23T08:55:11.301Z,2.95
2023-11-23T08:57:12.995Z,4.95
2023-11-23T08:59:14.430Z,4.32
2023-11-23T09:01:16.090Z,5.43
2023-11-23T09:03:17.779Z,3.58
2023-11-23T09:05:19.444Z,4.10
2023-11-23T09:07:21.029Z,4.53
2023-11-23T09:09:22.638Z,4.10
2023-11-23T09:11:24.083Z,3.78
2023-11-23T09:13:25.585Z,4.28
2023-11-23T09:15:27.204Z,4.03
2023-11-23T09:17:28.651Z,2.75
2023-11-23T09:19:30.315Z,4.07
2023-11-23T09:21:31.908Z,3.58
2023-11-23T09:23:33.412Z,4.10
2023-11-23T09:25:35.378Z,3.65
2023-11-23T09:27:37.382Z,3.97
2023-11-23T09:29:38.885Z,4.47
2023-11-23T09:31:40.459Z,3.13
2023-11-23T09:33:42.094Z,3.92
2023-11-23T09:35:43.734Z,4.18
2023-11-23T09:37:45.908Z,3.53
2023-11-23T09:39:47.536Z,2.90
2023-11-23T09:41:49.236Z,3.50
2023-11-23T09:43:51.369Z,3.05
2023-11-23T09:45:53.643Z,2.63
2023-11-23T09:47:57.211Z,3.55
2023-11-23T09:52:01.533Z,4.18
2023-11-23T09:54:04.704Z,2.65
2023-11-23T09:56:06.623Z,3.72
2023-11-23T09:58:08.184Z,3.83
2023-11-23T10:00:10.131Z,3.17
2023-11-23T10:02:12.739Z,3.30
2023-11-23T10:04:15.142Z,3.20
2023-11-23T10:06:16.746Z,2.33
2023-11-23T10:08:18.617Z,4.13
2023-11-23T10:10:20.807Z,5.07
2023-11-23T10:12:22.276Z,3.97
2023-11-23T10:14:24.086Z,2.97
2023-11-23T10:16:25.618Z,2.78
2023-11-23T10:18:41.022Z,2.88
2023-11-23T10:20:46.860Z,2.95
2023-11-23T10:22:50.080Z,3.22
2023-11-23T10:24:51.677Z,4.65
2023-11-23T10:26:53.414Z,3.17
2023-11-23T10:28:54.939Z,4.68
2023-11-23T10:30:56.389Z,5.90
2023-11-23T10:32:59.245Z,4.30
2023-11-23T10:35:07.046Z,5.45
2023-11-23T10:37:09.723Z,4.32
2023-11-23T10:39:12.969Z,2.95
2023-11-23T10:41:15.452Z,4.95
2023-11-23T10:43:17.078Z,3.80
2023-11-23T10:45:22.805Z,3.38
2023-11-23T10:47:27.426Z,3.63
2023-11-23T10:49:32.604Z,2.80
2023-11-23T10:51:34.811Z,3.38
2023-11-23T10:53:37.274Z,2.47
2023-11-23T10:55:38.708Z,4.35
2023-11-23T10:57:47.237Z,2.10
2023-11-23T10:59:50.246Z,2.88
2023-11-23T11:01:55.627Z,4.50
2023-11-23T11:03:58.057Z,1.88
2023-11-23T11:06:00.526Z,2.78
2023-11-23T11:08:05.737Z,2.15
2023-11-23T11:10:09.163Z,2.03
2023-11-23T11:12:10.715Z,2.42
2023-11-23T11:14:12.557Z,2.38
2023-11-23T11:16:15.303Z,2.75
2023-11-23T11:18:21.746Z,1.83
2023-11-23T11:20:26.966Z,1.90
2023-11-23T11:22:28.561Z,1.73
2023-11-23T11:24:30.296Z,1.25
2023-11-23T11:26:34.760Z,2.13
2023-11-23T11:28:40.778Z,1.80
2023-11-23T11:30:44.731Z,2.42
2023-11-23T11:32:46.394Z,1.35
2023-11-23T11:34:47.996Z,1.50
2023-11-23T11:36:57.324Z,2.97
2023-11-23T11:39:00.797Z,1.63
2023-11-23T11:43:07.938Z,1.58
2023-11-23T11:45:10.405Z,1.90
2023-11-23T11:47:12.438Z,2.58
2023-11-23T11:49:14.088Z,4.60
2023-11-23T11:51:15.677Z,2.20
2023-11-23T11:53:19.791Z,2.08
2023-11-23T11:55:21.498Z,1.48
2023-11-23T11:57:22.988Z,1.70
2023-11-23T11:59:28.909Z,2.28
2023-11-23T12:01:32.115Z,2.08
2023-11-23T12:03:33.758Z,1.63
2023-11-23T12:05:35.289Z,2.17
2023-11-23T12:07:36.840Z,3.55
2023-11-23T12:09:41.985Z,1.75
2023-11-23T12:11:48.078Z,1.75
2023-11-23T12:13:52.927Z,2.45
2023-11-23T12:15:54.454Z,1.95
2023-11-23T12:17:56.061Z,2.03
2023-11-23T12:19:57.704Z,1.85
2023-11-23T12:21:59.190Z,2.38
2023-11-23T12:24:00.757Z,1.20
2023-11-23T12:26:02.470Z,1.73
2023-11-23T12:28:08.882Z,1.52
2023-11-23T12:30:10.959Z,1.73
2023-11-23T12:32:12.611Z,1.20
2023-11-23T12:34:14.031Z,2.15
2023-11-23T12:36:15.611Z,1.27
2023-11-23T12:38:17.344Z,2.15
2023-11-23T12:40:18.957Z,2.03
2023-11-23T12:42:20.837Z,2.47
2023-11-23T12:44:23.291Z,1.45
2023-11-23T12:46:24.837Z,1.52
2023-11-23T12:48:26.557Z,1.15
2023-11-23T12:50:28.317Z,1.30
2023-11-23T12:52:29.777Z,1.45
2023-11-23T12:54:31.817Z,1.98
2023-11-23T12:56:34.398Z,1.75
2023-11-23T12:58:36.657Z,1.30
2023-11-23T13:00:39.312Z,1.40
2023-11-23T13:02:41.430Z,1.45
2023-11-23T13:04:42.944Z,1.48
2023-11-23T13:06:44.883Z,1.30
2023-11-23T13:08:46.599Z,1.63
2023-11-23T13:10:48.214Z,1.33
2023-11-23T13:12:49.932Z,1.42
2023-11-23T13:14:51.755Z,1.10
2023-11-23T13:16:53.227Z,2.65
2023-11-23T13:19:10.759Z,1.05
2023-11-23T13:21:16.394Z,1.50
2023-11-23T13:23:17.896Z,2.40
2023-11-23T13:25:19.661Z,1.70
2023-11-23T13:27:21.704Z,0.93
2023-11-23T13:29:23.154Z,9.57
2023-11-23T13:31:25.037Z,9.70
2023-11-23T13:33:26.701Z,9.35
2023-11-23T13:35:28.397Z,9.10
2023-11-23T13:37:30.144Z,9.77
2023-11-23T13:39:31.748Z,9.38
2023-11-23T13:41:33.260Z,9.07
2023-11-23T13:43:34.875Z,9.40
2023-11-23T13:45:36.528Z,9.63
2023-11-23T13:47:38.454Z,9.00
2023-11-23T13:49:41.407Z,8.70
2023-11-23T13:51:43.249Z,9.57
2023-11-23T13:53:45.495Z,9.35
2023-11-23T13:55:47.556Z,8.85
2023-11-23T13:57:49.297Z,8.63
2023-11-23T13:59:50.741Z,8.98
2023-11-23T14:01:52.425Z,8.35
2023-11-23T14:03:54.326Z,8.32
2023-11-23T14:05:55.894Z,8.50
2023-11-23T14:07:57.689Z,8.18
2023-11-23T14:09:59.302Z,7.60
2023-11-23T14:12:00.732Z,7.85
2023-11-23T14:14:02.461Z,7.90
2023-11-23T14:16:04.474Z,7.50
2023-11-23T14:18:06.549Z,7.75
2023-11-23T14:20:08.892Z,8.23
2023-11-23T14:22:10.547Z,7.72
2023-11-23T14:24:11.987Z,7.68
2023-11-23T14:26:13.670Z,7.78
2023-11-23T14:28:15.221Z,7.88
2023-11-23T14:30:16.687Z,8.90
2023-11-23T14:32:18.257Z,11.02
2023-11-23T14:34:20.017Z,7.65
2023-11-23T14:36:24.392Z,7.80
2023-11-23T14:38:25.945Z,7.28
2023-11-23T14:40:27.573Z,8.52
2023-11-23T14:42:38.855Z,8.25
2023-11-23T14:46:44.929Z,9.50
2023-11-23T14:48:46.555Z,10.25
2023-11-23T14:50:48.343Z,8.90
2023-11-23T14:52:49.965Z,9.45
2023-11-23T14:54:51.430Z,8.60
2023-11-23T14:56:53.164Z,11.63
2023-11-23T14:58:54.738Z,12.52
2023-11-23T15:00:56.357Z,8.70
2023-11-23T15:02:59.314Z,20.35
2023-11-23T15:05:00.852Z,9.25
2023-11-23T15:07:02.348Z,9.50
2023-11-23T15:09:03.984Z,11.70
2023-11-23T15:11:05.580Z,11.38
2023-11-23T15:13:07.232Z,10.27
2023-11-23T15:15:09.175Z,9.75
2023-11-23T15:17:10.741Z,8.95
2023-11-23T15:19:12.226Z,10.40
2023-11-23T15:21:13.705Z,9.63
2023-11-23T15:23:15.241Z,8.85
2023-11-23T15:25:16.881Z,10.55
2023-11-23T15:27:18.746Z,12.90
2023-11-23T15:29:20.326Z,8.68
2023-11-23T15:31:21.857Z,9.57
2023-11-23T15:33:24.016Z,9.07
2023-11-23T15:35:25.570Z,11.18
2023-11-23T15:37:27.019Z,8.23
2023-11-23T15:39:30.182Z,10.32
2023-11-23T15:41:31.958Z,11.68
2023-11-23T15:43:33.502Z,10.05
2023-11-23T15:45:35.365Z,9.90
2023-11-23T15:47:36.948Z,12.23
2023-11-23T15:49:38.579Z,11.80
2023-11-23T15:51:40.200Z,8.98
2023-11-23T15:53:41.731Z,9.93
2023-11-23T15:55:43.153Z,10.38
2023-11-23T15:57:44.866Z,8.27
2023-11-23T15:59:46.502Z,8.50
2023-11-23T16:01:48.015Z,9.88
2023-11-23T16:03:49.689Z,8.80
2023-11-23T16:05:51.309Z,7.20
2023-11-23T16:07:53.663Z,8.35
2023-11-23T16:09:55.438Z,8.02
2023-11-23T16:11:56.988Z,7.75
2023-11-23T16:13:58.422Z,8.85
2023-11-23T16:16:00.048Z,8.15
2023-11-23T16:18:01.775Z,6.72
2023-11-23T16:20:03.406Z,6.68
2023-11-23T16:22:04.916Z,7.35
2023-11-23T16:24:09.863Z,7.85
2023-11-23T16:26:11.322Z,6.43
2023-11-23T16:28:12.854Z,8.57
2023-11-23T16:30:15.362Z,11.30
2023-11-23T16:32:17.016Z,8.57
2023-11-23T16:34:18.938Z,7.18
2023-11-23T16:36:30.229Z,7.53
2023-11-23T16:38:38.349Z,8.10
2023-11-23T16:40:39.868Z,7.25
2023-11-23T16:42:43.035Z,7.25
2023-11-23T16:44:44.845Z,12.10
2023-11-23T16:46:46.795Z,6.10
2023-11-23T16:48:48.453Z,8.93
2023-11-23T16:50:50.169Z,7.75
2023-11-23T16:52:51.712Z,9.05
2023-11-23T16:54:53.267Z,7.32
2023-11-23T16:56:54.707Z,8.50
2023-11-23T16:58:56.345Z,6.93
2023-11-23T17:00:58.083Z,7.50
2023-11-23T17:02:59.971Z,8.05
2023-11-23T17:05:01.877Z,6.80
2023-11-23T17:07:03.834Z,11.75
2023-11-23T17:09:05.312Z,7.75
2023-11-23T17:11:06.769Z,9.07
2023-11-23T17:13:08.727Z,6.90
2023-11-23T17:15:10.547Z,10.88
2023-11-23T17:17:12.239Z,12.20
2023-11-23T17:19:14.362Z,7.20
2023-11-23T17:21:15.895Z,6.25
2023-11-23T17:23:17.321Z,8.00
2023-11-23T17:25:19.085Z,5.93
2023-11-23T17:27:20.603Z,7.35
2023-11-23T17:29:22.048Z,6.53
2023-11-23T17:31:23.813Z,6.68
2023-11-23T17:33:25.295Z,7.95
2023-11-23T17:35:27.013Z,6.85
2023-11-23T17:37:28.731Z,9.10
2023-11-23T17:39:30.369Z,6.65
2023-11-23T17:41:31.840Z,7.78
2023-11-23T17:43:33.621Z,8.52
2023-11-23T17:45:35.084Z,8.88
2023-11-23T17:47:36.661Z,8.38
2023-11-23T17:49:38.750Z,8.07
2023-11-23T17:51:40.525Z,7.82
2023-11-23T17:53:41.970Z,9.45
2023-11-23T17:55:43.769Z,7.93
2023-11-23T17:57:45.303Z,7.95
2023-11-23T17:59:49.940Z,8.07
2023-11-23T18:01:52.913Z,9.35
2023-11-23T18:03:54.840Z,9.77
2023-11-23T18:05:56.417Z,9.07
2023-11-23T18:08:01.066Z,8.65
2023-11-23T18:10:02.568Z,8.32
2023-11-23T18:12:04.230Z,8.40
2023-11-23T18:14:05.975Z,9.73
2023-11-23T18:16:07.706Z,9.30
2023-11-23T18:18:15.400Z,8.52
2023-11-23T18:20:23.737Z,8.15
2023-11-23T18:22:25.193Z,7.68
2023-11-23T18:24:26.668Z,8.88
2023-11-23T18:26:28.331Z,8.48
2023-11-23T18:28:29.785Z,8.27
2023-11-23T18:30:31.569Z,7.45
2023-11-23T18:32:33.467Z,7.68
2023-11-23T18:34:35.179Z,7.95
2023-11-23T18:36:36.947Z,8.18
2023-11-23T18:38:38.983Z,8.00
2023-11-23T18:40:40.988Z,7.97
2023-11-23T18:42:43.631Z,8.25
2023-11-23T18:44:45.383Z,7.47
2023-11-23T18:46:46.970Z,8.60
2023-11-23T18:48:48.556Z,7.13
2023-11-23T18:50:50.170Z,7.22
2023-11-23T18:52:51.685Z,7.30
2023-11-23T18:54:53.198Z,7.32
2023-11-23T18:56:54.790Z,8.10
2023-11-23T18:58:56.366Z,7.47
2023-11-23T19:00:57.919Z,7.03
2023-11-23T19:02:59.625Z,6.30
2023-11-23T19:05:01.277Z,6.30
2023-11-23T19:07:02.776Z,6.50
2023-11-23T19:09:04.637Z,6.20
2023-11-23T19:11:06.415Z,5.97
2023-11-23T19:13:07.890Z,5.63
2023-11-23T19:15:09.981Z,5.50
2023-11-23T19:17:11.624Z,5.57
2023-11-23T19:19:13.297Z,6.15
2023-11-23T19:21:17.744Z,5.63
2023-11-23T19:23:19.485Z,7.28
2023-11-23T19:25:22.471Z,6.60
2023-11-23T19:27:25.442Z,9.70
2023-11-23T19:29:35.456Z,13.43
2023-11-23T19:31:47.604Z,10.65
2023-11-23T19:33:49.477Z,7.47
2023-11-23T19:35:51.211Z,6.43
2023-11-23T19:37:52.878Z,8.10
2023-11-23T19:39:54.661Z,4.50
2023-11-23T19:41:59.067Z,8.02
2023-11-23T19:44:00.728Z,5.45
2023-11-23T19:46:02.624Z,8.57
2023-11-23T19:48:04.515Z,13.75
2023-11-23T19:50:06.714Z,7.10
2023-11-23T19:52:15.700Z,20.13
2023-11-23T19:54:18.298Z,6.13
2023-11-23T19:56:21.931Z,5.47
2023-11-23T19:58:24.969Z,4.50
2023-11-23T20:00:26.776Z,3.42
2023-11-23T20:02:28.283Z,5.22
2023-11-23T20:04:30.050Z,5.50
2023-11-23T20:06:31.690Z,5.25
2023-11-23T20:08:33.802Z,3.47
2023-11-23T20:10:35.428Z,8.30
2023-11-23T20:12:36.974Z,4.55
2023-11-23T20:14:38.427Z,3.38
2023-11-23T20:16:40.048Z,3.97
2023-11-23T20:18:41.666Z,3.75
2023-11-23T20:20:43.131Z,4.20
2023-11-23T20:22:44.706Z,4.28
2023-11-23T20:24:46.246Z,4.82
2023-11-23T20:26:47.675Z,6.20
2023-11-23T20:28:49.226Z,3.60
2023-11-23T20:30:50.775Z,3.25
2023-11-23T20:32:52.357Z,3.90
2023-11-23T20:34:54.029Z,5.13
2023-11-23T20:36:55.671Z,4.82
2023-11-23T20:38:57.382Z,4.35
2023-11-23T20:40:58.937Z,4.55
2023-11-23T20:43:00.379Z,5.07
2023-11-23T20:45:01.842Z,6.70
2023-11-23T20:47:03.375Z,4.15
2023-11-23T20:49:04.996Z,4.50
2023-11-23T20:51:06.516Z,6.68
2023-11-23T20:53:08.067Z,5.20
2023-11-23T20:55:10.745Z,10.90
2023-11-23T20:57:12.804Z,3.22
2023-11-23T20:59:14.565Z,5.95
2023-11-23T21:01:16.915Z,8.65
2023-11-23T21:03:18.873Z,8.35
2023-11-23T21:05:21.039Z,3.28
2023-11-23T21:07:22.828Z,5.90
2023-11-23T21:09:24.509Z,7.75
2023-11-23T21:11:26.051Z,4.30
2023-11-23T21:13:27.699Z,4.40
2023-11-23T21:15:30.517Z,4.30
2023-11-23T21:17:32.385Z,5.50
2023-11-23T21:19:36.335Z,4.25
2023-11-23T21:21:42.065Z,4.43
2023-11-23T21:23:43.609Z,2.95
2023-11-23T21:25:45.158Z,4.90
2023-11-23T21:27:46.652Z,8.63
2023-11-23T21:29:48.633Z,6.18
2023-11-23T21:31:50.335Z,2.85
2023-11-23T21:33:52.842Z,4.32
2023-11-23T21:35:54.466Z,2.40
2023-11-23T21:37:56.040Z,2.28
2023-11-23T21:39:57.958Z,4.85
2023-11-23T21:42:00.804Z,6.00
2023-11-23T21:44:02.364Z,4.40
2023-11-23T21:46:03.917Z,6.72
2023-11-23T21:48:05.830Z,3.63
2023-11-23T21:50:08.120Z,3.03
2023-11-23T21:52:10.624Z,2.80
2023-11-23T21:54:12.381Z,2.08
2023-11-23T21:56:13.978Z,2.58
2023-11-23T21:58:15.417Z,3.00
2023-11-23T22:00:17.183Z,3.00
2023-11-23T22:02:18.786Z,3.15
2023-11-23T22:04:20.522Z,2.28
2023-11-23T22:06:22.157Z,3.60
2023-11-23T22:08:23.846Z,2.83
2023-11-23T22:10:25.293Z,3.10
2023-11-23T22:12:27.048Z,3.15
2023-11-23T22:14:28.599Z,3.35
2023-11-23T22:16:30.257Z,3.95
2023-11-23T22:18:32.373Z,3.15
2023-11-23T22:20:34.097Z,2.83
2023-11-23T22:22:35.953Z,3.33
2023-11-23T22:24:37.710Z,2.72
2023-11-23T22:26:39.577Z,3.92
2023-11-23T22:28:41.530Z,4.20
2023-11-23T22:30:43.469Z,5.78
2023-11-23T22:32:45.514Z,2.63
2023-11-23T22:34:47.214Z,10.27
2023-11-23T22:36:49.024Z,5.68
2023-11-23T22:38:50.723Z,2.95
2023-11-23T22:40:52.400Z,2.75
2023-11-23T22:42:54.330Z,5.50
2023-11-23T22:44:56.077Z,3.08
2023-11-23T22:46:57.892Z,2.60
2023-11-23T22:48:59.665Z,2.30
2023-11-23T22:51:01.199Z,3.00
2023-11-23T22:53:02.635Z,2.53
2023-11-23T22:55:04.708Z,4.22
2023-11-23T22:57:06.530Z,3.70
2023-11-23T22:59:07.973Z,4.72
2023-11-23T23:01:09.777Z,4.18
2023-11-23T23:03:11.368Z,4.75
2023-11-23T23:05:12.904Z,4.88
2023-11-23T23:07:14.656Z,4.68
2023-11-23T23:09:16.098Z,3.65
2023-11-23T23:11:17.550Z,2.90
2023-11-23T23:13:19.388Z,11.25
2023-11-23T23:15:21.967Z,5.72
2023-11-23T23:17:23.427Z,4.47
2023-11-23T23:19:25.115Z,3.40
2023-11-23T23:21:26.569Z,4.93
2023-11-23T23:23:28.072Z,6.38
2023-11-23T23:25:29.691Z,5.70
2023-11-23T23:27:31.446Z,8.18
2023-11-23T23:29:32.971Z,8.15
2023-11-23T23:31:34.954Z,11.90
2023-11-23T23:33:36.540Z,5.00
2023-11-23T23:35:38.003Z,6.28
2023-11-23T23:37:40.004Z,5.88
2023-11-23T23:39:41.487Z,6.78
2023-11-23T23:41:42.987Z,7.40
2023-11-23T23:43:45.532Z,7.18
2023-11-23T23:45:47.092Z,4.00
2023-11-23T23:47:48.545Z,5.88
2023-11-23T23:49:50.578Z,6.03
2023-11-23T23:51:52.086Z,7.88
2023-11-23T23:53:53.526Z,6.82
2023-11-23T23:55:55.212Z,4.50
2023-11-23T23:57:56.672Z,9.25
2023-11-23T23:59:58.487Z,8.00
